Time;durP1;ratioP1;P1;durP2;ratioP2;P2;SDS_P1;SDS_P2;PMS_P1;PMS_P2;Temp;Humidity;BMP_temperature;BMP_pressure;BME280_temperature;BME280_humidity;BME280_pressure;Samples;Min_cycle;Max_cycle;Signal;HPM_P1;HPM_P2
2022/07/22 00:00:31;;;;;;;4.38;3.97;;;;;;;21.74;56.39;98479.56;5017751;28;20494;-79
2022/07/22 00:02:58;;;;;;;4.32;4.00;;;;;;;21.68;55.53;98469.94;5019500;28;20061;-80
2022/07/22 00:05:25;;;;;;;4.60;4.20;;;;;;;21.65;55.97;98476.59;5019431;28;20042;-79
2022/07/22 00:07:51;;;;;;;4.40;4.10;;;;;;;21.61;56.38;98481.69;5021523;28;20116;-79
2022/07/22 00:10:18;;;;;;;4.68;4.15;;;;;;;21.56;55.76;98487.00;5021569;28;20057;-80
2022/07/22 00:12:45;;;;;;;7.70;4.88;;;;;;;21.41;56.31;98470.94;5020589;28;20088;-80
2022/07/22 00:15:12;;;;;;;4.82;4.43;;;;;;;21.36;56.28;98479.72;5020794;28;20045;-79
2022/07/22 00:17:39;;;;;;;4.80;4.40;;;;;;;21.26;57.07;98478.81;5023258;28;20037;-79
2022/07/22 00:20:07;;;;;;;4.50;4.10;;;;;;;21.32;56.91;98485.81;5022068;28;20050;-78
2022/07/22 00:22:34;;;;;;;4.53;4.13;;;;;;;21.29;56.48;98494.31;5023400;28;20053;-79
2022/07/22 00:25:00;;;;;;;4.40;4.00;;;;;;;21.23;56.17;98490.81;5026789;28;20523;-80
2022/07/22 00:27:27;;;;;;;4.15;3.85;;;;;;;21.23;56.86;98482.00;5025510;28;20045;-79
2022/07/22 00:29:54;;;;;;;3.85;3.55;;;;;;;21.22;57.26;98483.06;5023484;28;20066;-80
2022/07/22 00:32:20;;;;;;;3.83;3.53;;;;;;;21.25;57.55;98482.56;5024731;28;20452;-80
2022/07/22 00:34:47;;;;;;;4.03;3.72;;;;;;;21.26;58.74;98479.63;5024400;28;20033;-79
2022/07/22 00:37:14;;;;;;;4.25;3.85;;;;;;;21.22;58.69;98483.06;5024129;28;20056;-80
2022/07/22 00:39:41;;;;;;;4.00;3.40;;;;;;;21.19;57.77;98472.91;5025204;28;20513;-80
2022/07/22 00:42:07;;;;;;;3.75;3.45;;;;;;;21.22;57.71;98483.84;5028524;28;20111;-81
2022/07/22 00:44:34;;;;;;;3.85;3.55;;;;;;;21.22;56.77;98483.06;5024840;28;20371;-81
2022/07/22 00:47:06;;;;;;;3.50;3.20;;;;;;;21.19;58.02;98481.72;5024191;28;20053;-80
2022/07/22 00:49:33;;;;;;;3.95;3.55;;;;;;;21.21;57.87;98486.78;5025512;28;20041;-80
2022/07/22 00:52:00;;;;;;;3.75;3.45;;;;;;;21.21;58.24;98492.94;5021784;28;20057;-80
2022/07/22 00:54:27;;;;;;;4.13;3.72;;;;;;;21.17;57.96;98491.84;5022540;28;20329;-80
2022/07/22 00:56:55;;;;;;;3.95;3.65;;;;;;;21.13;58.19;98490.75;5019484;28;20099;-80
2022/07/22 00:59:22;;;;;;;3.80;3.50;;;;;;;21.14;58.57;98491.56;5020560;28;20046;-80
2022/07/22 01:01:49;;;;;;;3.92;3.53;;;;;;;21.09;58.81;98489.66;5022781;28;20042;-80
2022/07/22 01:04:17;;;;;;;4.32;3.92;;;;;;;21.08;58.60;98491.53;5023051;28;20044;-80
2022/07/22 01:06:44;;;;;;;4.22;3.92;;;;;;;21.02;58.07;98483.75;5023206;28;20449;-79
2022/07/22 01:09:13;;;;;;;3.80;3.50;;;;;;;20.98;59.04;98475.47;5021430;28;20072;-80
2022/07/22 01:11:41;;;;;;;3.90;3.60;;;;;;;20.98;59.38;98472.78;5021096;28;20577;-80
2022/07/22 01:14:08;;;;;;;3.50;3.20;;;;;;;21.00;59.80;98485.88;5025772;28;20041;-80
2022/07/22 01:16:36;;;;;;;3.80;3.50;;;;;;;20.98;59.30;98483.47;5022170;28;20124;-80
2022/07/22 01:19:04;;;;;;;4.35;3.95;;;;;;;20.94;59.62;98486.91;5024587;28;20052;-80
2022/07/22 01:21:32;;;;;;;3.80;3.50;;;;;;;20.93;59.74;98483.44;5022464;28;20045;-80
2022/07/22 01:23:59;;;;;;;5.07;4.68;;;;;;;20.73;58.99;98483.28;5025365;28;20065;-80
2022/07/22 01:26:27;;;;;;;4.28;3.88;;;;;;;20.68;59.42;98478.72;5024725;28;20041;-80
2022/07/22 01:28:53;;;;;;;4.60;4.20;;;;;;;20.68;59.89;98480.59;5022638;28;20115;-80
2022/07/22 01:31:21;;;;;;;5.53;4.20;;;;;;;20.61;59.20;98474.69;5025612;28;20045;-80
2022/07/22 01:33:48;;;;;;;4.72;4.32;;;;;;;20.35;61.14;98479.78;5025852;28;20033;-79
2022/07/22 01:36:15;;;;;;;4.50;4.10;;;;;;;20.38;60.32;98481.13;5023150;28;20053;-80
2022/07/22 01:38:42;;;;;;;5.40;4.90;;;;;;;20.24;60.57;98483.41;5020402;28;20096;-80
2022/07/22 01:41:10;;;;;;;4.85;4.45;;;;;;;20.29;61.78;98486.13;5023673;28;20049;-80
2022/07/22 01:43:36;;;;;;;4.97;4.50;;;;;;;20.18;60.64;98479.88;5021702;28;20448;-80
2022/07/22 01:46:04;;;;;;;4.72;4.32;;;;;;;20.08;61.48;98484.31;5024165;28;20452;-80
2022/07/22 01:48:31;;;;;;;5.15;4.57;;;;;;;20.05;61.41;98481.09;5024374;28;20438;-79
2022/07/22 01:50:58;;;;;;;5.35;4.90;;;;;;;19.98;61.75;98485.03;5020921;28;20038;-80
2022/07/22 01:53:25;;;;;;;4.53;4.13;;;;;;;20.02;62.57;98473.59;5020897;28;20440;-80
2022/07/22 01:55:52;;;;;;;4.97;4.47;;;;;;;19.99;61.66;98482.09;5020875;28;20038;-80
2022/07/22 01:58:19;;;;;;;4.68;4.28;;;;;;;19.91;62.82;98479.91;5020933;28;20063;-80
2022/07/22 02:00:46;;;;;;;4.88;4.40;;;;;;;19.95;62.49;98477.53;5023308;28;20049;-79
2022/07/22 02:03:12;;;;;;;5.07;4.57;;;;;;;20.00;62.00;98477.59;5021197;28;20441;-80
2022/07/22 02:05:39;;;;;;;5.15;4.65;;;;;;;20.00;61.96;98478.38;5021649;28;20125;-80
2022/07/22 02:08:09;;;;;;;5.40;4.90;;;;;;;19.89;62.21;98478.53;5020713;28;20489;-80
2022/07/22 02:10:37;;;;;;;5.80;5.30;;;;;;;19.77;62.40;98476.00;5021481;28;20057;-80
2022/07/22 02:13:04;;;;;;;5.53;5.03;;;;;;;19.67;63.34;98479.38;5021750;28;20095;-80
2022/07/22 02:15:31;;;;;;;5.28;4.78;;;;;;;19.61;63.23;98475.06;5024267;28;20038;-80
2022/07/22 02:17:58;;;;;;;5.15;4.65;;;;;;;19.58;63.19;98482.69;5022545;28;20091;-80
2022/07/22 02:20:25;;;;;;;5.72;5.22;;;;;;;19.42;63.71;98479.81;5021722;28;20042;-80
2022/07/22 02:22:51;;;;;;;5.80;5.30;;;;;;;19.20;64.36;98474.50;5021099;28;20045;-79
2022/07/22 02:25:18;;;;;;;5.63;5.13;;;;;;;19.16;64.83;98477.91;5024293;28;20107;-80
2022/07/22 02:27:45;;;;;;;5.35;4.90;;;;;;;19.09;65.10;98466.66;5021980;28;20041;-80
2022/07/22 02:30:12;;;;;;;6.15;4.78;;;;;;;19.08;65.59;98478.34;5023138;28;20510;-80
2022/07/22 02:32:39;;;;;;;5.40;4.90;;;;;;;19.11;66.14;98467.19;5019208;28;20045;-80
2022/07/22 02:35:06;;;;;;;4.72;4.20;;;;;;;19.07;65.60;98458.09;5024132;28;20514;-80
2022/07/22 02:37:34;;;;;;;4.10;3.58;;;;;;;19.27;66.21;98474.31;5023072;28;20045;-80
2022/07/22 02:40:01;;;;;;;4.32;3.92;;;;;;;19.37;66.49;98473.63;5023210;28;20132;-80
2022/07/22 02:42:28;;;;;;;4.75;4.35;;;;;;;19.41;66.31;98459.59;5025904;28;20045;-80
2022/07/22 02:44:54;;;;;;;4.53;4.13;;;;;;;19.47;65.61;98471.91;5020786;28;20473;-80
2022/07/22 02:47:21;;;;;;;4.90;4.50;;;;;;;19.37;65.37;98474.47;5022336;28;20045;-80
2022/07/22 02:49:48;;;;;;;5.20;4.75;;;;;;;19.28;65.94;98470.63;5024687;28;20484;-80
2022/07/22 02:52:14;;;;;;;5.28;4.82;;;;;;;19.27;66.35;98463.69;5012642;28;20050;-80
2022/07/22 02:54:41;;;;;;;4.55;4.15;;;;;;;19.34;66.61;98464.31;5020571;28;20034;-80
2022/07/22 02:57:08;;;;;;;5.03;4.63;;;;;;;19.35;66.18;98471.22;5018257;28;20528;-80
2022/07/22 02:59:36;;;;;;;4.75;4.35;;;;;;;19.34;65.87;98474.16;5020772;28;20041;-79
2022/07/22 03:02:03;;;;;;;3.83;3.53;;;;;;;19.40;66.08;98476.63;5022607;28;20049;-80
2022/07/22 03:04:29;;;;;;;4.78;3.67;;;;;;;19.45;66.17;98474.03;5021475;28;20053;-80
2022/07/22 03:06:56;;;;;;;4.75;4.35;;;;;;;19.48;65.96;98476.16;5019571;28;20405;-80
2022/07/22 03:09:23;;;;;;;4.68;4.28;;;;;;;19.46;65.79;98474.81;5021733;28;20049;-80
2022/07/22 03:11:50;;;;;;;5.38;4.88;;;;;;;19.43;65.95;98480.63;5021898;28;20049;-79
2022/07/22 03:14:18;;;;;;;4.55;4.15;;;;;;;19.38;65.98;98470.75;5022010;28;20464;-80
2022/07/22 03:16:45;;;;;;;4.40;4.00;;;;;;;19.41;65.53;98480.88;5022168;28;20120;-80
2022/07/22 03:19:12;;;;;;;4.70;4.30;;;;;;;19.39;66.11;98476.88;5025001;28;20477;-80
2022/07/22 03:21:39;;;;;;;4.60;4.20;;;;;;;19.35;66.50;98479.22;5020735;28;20413;-80
2022/07/22 03:24:06;;;;;;;4.60;4.20;;;;;;;19.39;65.86;98485.66;5019586;28;20140;-80
2022/07/22 03:26:32;;;;;;;4.55;4.15;;;;;;;19.37;66.17;98478.94;5024347;28;20125;-79
2022/07/22 03:28:59;;;;;;;4.93;4.45;;;;;;;19.36;65.98;98483.47;5025012;28;20065;-80
2022/07/22 03:31:27;;;;;;;4.75;4.35;;;;;;;19.28;65.77;98475.94;5022616;28;20092;-80
2022/07/22 03:33:53;;;;;;;4.20;3.80;;;;;;;19.29;65.72;98477.53;5021482;28;20076;-80
2022/07/22 03:36:20;;;;;;;4.65;4.25;;;;;;;19.29;66.36;98482.06;5021626;28;20046;-80
2022/07/22 03:38:47;;;;;;;4.95;4.55;;;;;;;19.23;65.86;98489.16;5023280;28;20041;-79
2022/07/22 03:41:13;;;;;;;4.93;4.53;;;;;;;19.19;66.11;98482.72;5025360;28;20069;-80
2022/07/22 03:43:40;;;;;;;4.95;4.50;;;;;;;19.24;65.73;98493.41;5024096;28;20049;-81
2022/07/22 03:46:07;;;;;;;5.22;4.72;;;;;;;19.17;65.21;98479.50;5021753;28;20069;-79
2022/07/22 03:48:33;;;;;;;4.40;4.00;;;;;;;19.22;65.63;98487.56;5021929;28;20038;-80
2022/07/22 03:51:00;;;;;;;4.80;4.40;;;;;;;19.17;65.94;98475.00;5018429;28;20049;-80
2022/07/22 03:53:27;;;;;;;5.25;4.75;;;;;;;19.18;66.07;98491.75;5016325;28;20050;-80
2022/07/22 03:55:54;;;;;;;4.85;4.45;;;;;;;19.15;66.33;98500.22;5020396;28;20457;-81
2022/07/22 03:58:21;;;;;;;4.60;4.18;;;;;;;19.17;66.59;98503.44;5023022;28;20081;-80
2022/07/22 04:00:47;;;;;;;4.63;4.22;;;;;;;19.17;66.63;98500.78;5027978;28;20034;-80
2022/07/22 04:03:14;;;;;;;4.63;4.20;;;;;;;19.08;66.18;98486.31;5025615;28;20042;-80
2022/07/22 04:05:41;;;;;;;5.65;5.22;;;;;;;19.09;66.43;98499.34;5024806;28;20084;-80
2022/07/22 04:08:08;;;;;;;6.05;5.18;;;;;;;19.07;66.28;98500.63;5024498;28;20042;-80
2022/07/22 04:10:34;;;;;;;5.15;4.65;;;;;;;19.07;67.20;98506.78;5039378;28;20049;-80
2022/07/22 04:13:01;;;;;;;5.30;4.90;;;;;;;19.10;66.39;98506.28;5025152;28;20041;-80
2022/07/22 04:15:28;;;;;;;4.93;4.53;;;;;;;19.09;66.86;98499.34;5024146;28;20142;-80
2022/07/22 04:17:55;;;;;;;5.15;4.75;;;;;;;19.07;66.69;98497.97;5025863;28;20175;-80
2022/07/22 04:20:22;;;;;;;4.15;3.80;;;;;;;19.12;67.42;98498.03;5025738;28;20049;-80
2022/07/22 04:22:48;;;;;;;4.20;3.90;;;;;;;19.06;67.32;98489.19;5025611;28;20422;-80
2022/07/22 04:25:15;;;;;;;4.43;4.03;;;;;;;19.15;67.56;98490.38;5023780;28;20109;-80
2022/07/22 04:27:42;;;;;;;6.15;4.60;;;;;;;19.09;67.30;98482.59;5025604;28;20044;-80
2022/07/22 04:30:09;;;;;;;5.07;4.68;;;;;;;19.08;67.84;98481.00;5027050;28;20444;-80
2022/07/22 04:32:36;;;;;;;5.03;4.53;;;;;;;19.10;67.05;98485.00;5022657;28;20052;-80
2022/07/22 04:35:04;;;;;;;4.30;4.00;;;;;;;19.06;68.23;98496.34;5026708;28;20048;-80
2022/07/22 04:37:31;;;;;;;4.68;4.25;;;;;;;19.07;67.77;98490.00;5042694;28;20060;-80
2022/07/22 04:39:58;;;;;;;4.47;4.05;;;;;;;19.07;68.06;98490.00;5024508;28;20087;-80
2022/07/22 04:42:24;;;;;;;4.43;4.03;;;;;;;19.13;67.82;98486.34;5024730;28;20582;-80
2022/07/22 04:44:51;;;;;;;4.63;4.22;;;;;;;19.12;68.06;98484.75;5025297;28;20292;-79
2022/07/22 04:47:18;;;;;;;4.30;3.97;;;;;;;19.13;68.20;98486.34;5021316;28;20046;-80
2022/07/22 04:49:44;;;;;;;5.07;4.55;;;;;;;19.12;67.90;98484.75;5021684;28;20042;-80
2022/07/22 04:52:11;;;;;;;5.25;4.85;;;;;;;19.15;68.24;98492.25;5018645;28;20482;-80
2022/07/22 04:54:38;;;;;;;5.47;5.00;;;;;;;19.15;68.59;98489.59;5023791;28;20121;-80
2022/07/22 04:57:05;;;;;;;5.20;4.78;;;;;;;19.10;67.23;98489.50;5023095;28;20386;-80
2022/07/22 04:59:32;;;;;;;5.03;4.63;;;;;;;18.95;68.43;98472.31;5024899;28;20509;-80
2022/07/22 05:01:59;;;;;;;4.82;4.40;;;;;;;19.12;68.46;98484.75;5022512;28;20065;-80
2022/07/22 05:04:26;;;;;;;4.47;4.07;;;;;;;19.11;68.98;98475.97;5037956;28;20050;-80
2022/07/22 05:06:52;;;;;;;4.30;3.90;;;;;;;19.18;68.23;98481.09;5021174;28;20116;-80
2022/07/22 05:09:19;;;;;;;5.10;4.60;;;;;;;19.09;67.31;98478.06;5023272;28;20128;-80
2022/07/22 05:11:46;;;;;;;5.85;5.35;;;;;;;18.93;68.00;98487.69;5027598;28;20445;-80
2022/07/22 05:14:12;;;;;;;5.68;5.18;;;;;;;18.77;68.87;98483.19;5024875;28;20455;-80
2022/07/22 05:16:39;;;;;;;6.43;5.82;;;;;;;18.62;70.11;98485.59;5021701;28;20050;-80
2022/07/22 05:19:06;;;;;;;6.10;5.55;;;;;;;18.52;70.84;98488.88;5020040;28;20050;-80
2022/07/22 05:21:33;;;;;;;5.95;5.45;;;;;;;18.49;71.32;98493.88;5022787;28;20088;-81
2022/07/22 05:24:00;;;;;;;6.32;5.75;;;;;;;18.45;71.90;98497.00;5022436;28;20084;-81
2022/07/22 05:26:29;;;;;;;6.82;6.13;;;;;;;18.46;71.87;98495.97;5021696;28;20069;-81
2022/07/22 05:28:56;;;;;;;7.38;6.68;;;;;;;18.56;71.15;98494.53;5035943;28;20033;-80
2022/07/22 05:31:23;;;;;;;6.80;6.20;;;;;;;18.68;71.66;98492.63;5021370;28;20069;-81
2022/07/22 05:33:50;;;;;;;6.60;6.00;;;;;;;18.78;71.90;98492.78;5021004;28;20073;-81
2022/07/22 05:36:17;;;;;;;6.28;5.68;;;;;;;19.03;70.92;98494.22;5016790;28;20042;-81
2022/07/22 05:38:44;;;;;;;8.18;7.40;;;;;;;19.09;70.10;98480.75;5025026;28;20041;-81
2022/07/22 05:41:11;;;;;;;6.97;5.35;;;;;;;19.25;70.42;98479.91;5025005;28;20049;-81
2022/07/22 05:43:38;;;;;;;4.90;4.45;;;;;;;19.51;69.83;98486.34;5027786;28;20502;-82
2022/07/22 05:46:07;;;;;;;6.55;5.95;;;;;;;19.60;69.24;98488.59;5025751;28;20546;-81
2022/07/22 05:48:34;;;;;;;6.38;5.88;;;;;;;19.67;69.31;98494.50;5024396;28;20053;-81
2022/07/22 05:51:01;;;;;;;7.30;6.45;;;;;;;19.76;67.51;98488.50;5018497;28;20140;-81
2022/07/22 05:53:28;;;;;;;5.60;4.65;;;;;;;19.90;68.64;98488.91;5024802;28;20076;-80
2022/07/22 05:55:54;;;;;;;5.82;5.22;;;;;;;20.13;67.93;98481.69;5020630;28;20519;-81
2022/07/22 05:58:21;;;;;;;5.90;5.40;;;;;;;20.37;66.63;98493.63;5021482;28;20076;-80
2022/07/22 06:00:47;;;;;;;5.32;4.85;;;;;;;20.48;67.25;98491.91;5024387;28;20100;-81
2022/07/22 06:03:14;;;;;;;5.88;5.35;;;;;;;20.66;66.88;98491.50;5026130;28;20516;-81
2022/07/22 06:05:45;;;;;;;5.43;4.93;;;;;;;20.88;66.85;98499.41;5026059;28;20034;-80
2022/07/22 06:08:12;;;;;;;6.22;5.00;;;;;;;21.01;65.36;98496.28;5022016;28;20041;-81
2022/07/22 06:10:39;;;;;;;6.28;5.68;;;;;;;21.13;63.88;98495.28;5021464;28;20417;-80
2022/07/22 06:13:05;;;;;;;5.90;5.40;;;;;;;21.20;65.69;98501.19;5021573;28;20042;-81
2022/07/22 06:15:32;;;;;;;5.50;5.00;;;;;;;21.34;65.58;98508.50;5023188;28;20046;-80
2022/07/22 06:17:59;;;;;;;5.50;5.00;;;;;;;21.46;64.85;98505.63;5025043;28;20065;-81
2022/07/22 06:20:26;;;;;;;5.20;4.80;;;;;;;21.57;63.73;98496.59;5023661;28;20050;-80
2022/07/22 06:22:52;;;;;;;5.93;5.43;;;;;;;21.51;63.11;98486.97;5022946;28;20038;-81
2022/07/22 06:25:19;;;;;;;6.68;6.07;;;;;;;21.48;63.59;98490.16;5025105;28;20042;-80
2022/07/22 06:28:06;;;;;;;5.82;5.32;;;;;;;21.77;64.54;98498.56;5026242;28;20128;-81
2022/07/22 06:30:32;;;;;;;4.60;4.20;;;;;;;21.93;63.50;98494.03;5024328;28;20049;-81
2022/07/22 06:32:59;;;;;;;4.85;4.45;;;;;;;22.12;63.00;98497.84;5022783;28;20124;-81
2022/07/22 06:35:26;;;;;;;5.95;5.45;;;;;;;22.10;60.93;98496.50;5023875;28;20042;-81
2022/07/22 06:37:53;;;;;;;5.18;4.68;;;;;;;22.24;60.75;98494.91;5023001;28;20096;-82
2022/07/22 06:40:33;;;;;;;5.00;4.60;;;;;;;22.41;62.35;98497.34;5024420;28;20461;-81
2022/07/22 06:42:59;;;;;;;5.00;4.60;;;;;;;22.52;60.81;98493.63;5021291;28;20481;-81
2022/07/22 06:45:26;;;;;;;5.03;4.55;;;;;;;22.63;62.32;98500.56;5021421;28;20053;-81
2022/07/22 06:47:53;;;;;;;4.32;3.92;;;;;;;22.86;62.65;98503.78;5023005;28;20045;-82
2022/07/22 06:50:22;;;;;;;4.20;3.90;;;;;;;23.01;61.10;98495.75;5021515;28;20045;-81
2022/07/22 06:52:50;;;;;;;3.90;3.55;;;;;;;23.21;60.68;98502.91;5022863;28;20064;-80
2022/07/22 06:55:17;;;;;;;6.55;5.95;;;;;;;23.05;58.26;98499.47;5022353;28;20046;-81
2022/07/22 06:57:44;;;;;;;5.35;4.85;;;;;;;23.19;58.35;98503.19;5021982;28;20069;-82
2022/07/22 07:00:11;;;;;;;5.60;5.10;;;;;;;23.17;57.73;98507.22;5022450;28;20467;-80
2022/07/22 07:02:38;;;;;;;5.18;4.78;;;;;;;23.36;59.94;98504.75;5025677;28;20619;-82
2022/07/22 07:05:05;;;;;;;3.85;3.55;;;;;;;23.50;59.43;98501.22;5017770;28;20082;-82
2022/07/22 07:07:32;;;;;;;4.47;4.07;;;;;;;23.65;57.11;98491.56;5023462;28;20379;-81
2022/07/22 07:10:03;;;;;;;4.45;4.15;;;;;;;23.62;56.50;98495.56;5025813;28;20681;-81
2022/07/22 07:12:35;;;;;;;5.32;4.35;;;;;;;23.71;57.15;98490.47;5020528;28;20520;-81
2022/07/22 07:15:05;;;;;;;4.80;4.40;;;;;;;23.84;57.45;98495.22;5023673;28;20033;-80
2022/07/22 07:17:56;;;;;;;5.00;4.50;;;;;;;23.98;55.91;98484.66;5025871;28;20057;-80
2022/07/22 07:20:24;;;;;;;5.22;4.72;;;;;;;24.06;57.06;98491.34;5024175;28;20048;-81
2022/07/22 07:22:51;;;;;;;4.63;4.13;;;;;;;24.18;55.45;98492.59;5023584;28;20068;-81
2022/07/22 07:25:18;;;;;;;3.97;3.67;;;;;;;24.28;56.34;98487.16;5021704;28;20050;-80
2022/07/22 07:27:50;;;;;;;4.03;3.72;;;;;;;24.52;57.14;98489.16;5021222;28;20046;-81
2022/07/22 07:30:19;;;;;;;4.40;3.78;;;;;;;24.58;57.27;98474.63;5029621;28;20045;-81
2022/07/22 07:32:46;;;;;;;4.03;3.72;;;;;;;24.68;54.87;98487.16;5026556;28;20069;-81
2022/07/22 07:35:12;;;;;;;4.72;4.38;;;;;;;24.62;53.39;98467.63;5029012;28;20049;-82
2022/07/22 07:37:39;;;;;;;4.30;4.00;;;;;;;24.73;54.96;98485.22;5032440;28;20091;-82
2022/07/22 07:40:07;;;;;;;5.13;4.72;;;;;;;24.71;53.81;98476.66;5026022;28;20064;-82
2022/07/22 07:42:35;;;;;;;4.65;4.25;;;;;;;24.77;54.28;98475.53;5028199;28;20453;-82
2022/07/22 07:45:09;;;;;;;4.72;4.32;;;;;;;24.95;52.11;98459.78;5030946;28;20084;-81
2022/07/22 07:47:36;;;;;;;4.28;3.80;;;;;;;25.01;52.80;98466.69;5027562;28;20095;-81
2022/07/22 07:50:07;;;;;;;4.65;4.25;;;;;;;25.02;51.94;98466.44;5022369;28;20044;-81
2022/07/22 07:52:43;;;;;;;4.57;4.20;;;;;;;25.05;52.97;98463.19;5023503;28;20646;-82
2022/07/22 07:55:17;;;;;;;3.90;3.60;;;;;;;25.32;53.55;98459.94;5027742;28;20044;-79
2022/07/22 07:57:48;;;;;;;3.53;3.22;;;;;;;25.53;53.38;98460.47;5025230;28;20055;-80
2022/07/22 08:00:21;;;;;;;3.97;3.67;;;;;;;25.66;52.52;98456.28;5023603;28;20050;-82
2022/07/22 08:02:48;;;;;;;4.53;4.15;;;;;;;25.56;50.82;98449.19;5028299;28;20148;-82
2022/07/22 08:05:16;;;;;;;4.15;3.85;;;;;;;25.75;53.71;98453.78;5026550;28;20053;-82
2022/07/22 08:07:43;;;;;;;4.30;4.00;;;;;;;25.86;51.78;98448.00;5030626;28;20048;-83
2022/07/22 08:10:10;;;;;;;4.20;3.90;;;;;;;25.92;52.56;98448.72;5031084;28;20071;-81
2022/07/22 08:12:57;;;;;;;5.50;5.00;;;;;;;25.73;49.87;98454.09;5024357;28;20497;-85
2022/07/22 08:15:29;;;;;;;5.25;4.78;;;;;;;25.63;50.04;98448.81;5030642;28;20068;-80
2022/07/22 08:17:56;;;;;;;4.88;4.57;;;;;;;25.65;51.21;98446.63;5027927;28;20501;-80
2022/07/22 08:20:25;;;;;;;4.40;4.00;;;;;;;25.71;52.53;98450.84;5025090;28;20107;-80
2022/07/22 08:22:53;;;;;;;4.57;4.18;;;;;;;25.89;50.42;98443.91;5023388;28;20034;-81
2022/07/22 08:25:21;;;;;;;4.97;4.57;;;;;;;25.95;53.15;98441.94;5024735;28;20125;-80
2022/07/22 08:27:48;;;;;;;4.80;4.38;;;;;;;25.95;50.23;98440.06;5027073;28;20049;-81
2022/07/22 08:30:17;;;;;;;4.10;3.80;;;;;;;26.04;50.85;98434.84;5008608;28;20045;-86
2022/07/22 08:32:45;;;;;;;5.28;4.78;;;;;;;25.99;49.40;98434.91;5007952;28;20119;-86
2022/07/22 08:35:12;;;;;;;5.15;4.70;;;;;;;26.10;49.27;98430.97;5027216;28;20505;-86
2022/07/22 08:37:39;;;;;;;4.85;4.50;;;;;;;25.87;49.14;98425.41;5019006;28;20095;-86
2022/07/22 08:40:08;;;;;;;4.35;4.05;;;;;;;26.13;50.93;98425.00;5027046;28;20081;-86
2022/07/22 08:42:40;;;;;;;5.55;4.95;;;;;;;26.09;48.21;98424.81;5022244;28;20409;-85
2022/07/22 08:45:09;;;;;;;6.38;5.78;;;;;;;25.96;48.40;98427.41;5021436;28;20076;-86
2022/07/22 08:47:48;;;;;;;5.53;5.00;;;;;;;25.77;48.37;98422.84;5024790;28;20042;-86
2022/07/22 08:50:20;;;;;;;4.50;4.00;;;;;;;26.19;47.96;98431.09;5026222;28;20459;-83
2022/07/22 08:52:47;;;;;;;4.43;4.03;;;;;;;26.46;47.44;98419.69;5028886;28;20057;-85
2022/07/22 08:55:15;;;;;;;5.35;4.95;;;;;;;26.45;47.05;98415.38;5027191;28;20480;-87
2022/07/22 08:57:47;;;;;;;5.38;4.88;;;;;;;26.48;47.19;98418.28;5014739;28;20048;-87
2022/07/22 09:00:18;;;;;;;6.57;5.70;;;;;;;26.23;48.35;98403.34;5034607;28;20092;-85
2022/07/22 09:02:45;;;;;;;8.32;6.95;;;;;;;26.21;47.69;98404.72;5026664;28;20618;-86
2022/07/22 09:05:16;;;;;;;4.90;4.50;;;;;;;26.25;48.43;98394.97;5028825;28;20049;-86
2022/07/22 09:08:03;;;;;;;6.50;5.60;;;;;;;26.37;47.88;98406.84;5026705;28;20559;-85
2022/07/22 09:10:35;;;;;;;5.05;4.57;;;;;;;26.59;49.13;98413.53;5030578;28;20620;-85
2022/07/22 09:13:10;;;;;;;7.10;6.40;;;;;;;26.29;48.27;98412.94;5012123;28;20069;-86
2022/07/22 09:15:48;;;;;;;5.75;5.20;;;;;;;26.51;48.30;98403.44;5031981;28;20107;-86
2022/07/22 09:18:15;;;;;;;5.35;4.70;;;;;;;26.76;49.34;98405.69;5028736;28;20041;-84
2022/07/22 09:20:44;;;;;;;5.32;4.93;;;;;;;26.90;46.52;98409.16;5024829;28;20037;-86
2022/07/22 09:23:15;;;;;;;6.25;5.47;;;;;;;26.97;47.88;98405.28;5048783;28;20072;-87
2022/07/22 09:25:42;;;;;;;5.75;5.20;;;;;;;26.84;46.86;98386.13;5032636;28;20575;-85
2022/07/22 09:28:17;;;;;;;6.43;5.10;;;;;;;26.98;46.65;98402.28;5020155;28;20043;-85
2022/07/22 09:30:50;;;;;;;5.30;4.90;;;;;;;27.27;46.82;98409.28;5024653;28;20052;-85
2022/07/22 09:33:21;;;;;;;5.88;5.38;;;;;;;27.21;45.85;98405.91;5029257;28;20041;-85
2022/07/22 09:35:49;;;;;;;4.60;4.30;;;;;;;27.40;45.81;98398.47;5016286;28;20049;-84
2022/07/22 09:38:27;;;;;;;4.30;3.90;;;;;;;27.69;45.51;98400.03;5027282;28;20053;-83
2022/07/22 09:40:54;;;;;;;6.78;6.07;;;;;;;27.50;43.38;98394.00;5025614;28;20037;-86
2022/07/22 09:43:21;;;;;;;5.20;4.80;;;;;;;27.66;44.53;98392.56;5029882;28;20071;-85
2022/07/22 09:45:57;;;;;;;4.88;4.57;;;;;;;27.78;43.01;98387.47;5027810;28;20045;-85
2022/07/22 09:48:25;;;;;;;5.60;5.10;;;;;;;27.78;43.65;98382.06;5021117;28;20054;-85
2022/07/22 09:50:56;;;;;;;6.70;6.10;;;;;;;27.62;44.00;98381.56;5017454;28;20049;-85
2022/07/22 09:53:33;;;;;;;;;;;;;;;27.84;43.42;98391.63;5026570;28;20535;-85
2022/07/22 09:56:05;;;;;;;6.07;5.55;;;;;;;27.86;42.77;98384.03;5024628;28;20006;-83
2022/07/22 09:58:32;;;;;;;4.85;4.45;;;;;;;27.91;43.98;98380.41;5013993;28;20060;-90
2022/07/22 10:01:04;;;;;;;4.53;4.13;;;;;;;28.03;42.72;98388.75;5027374;28;20096;-85
2022/07/22 10:03:36;;;;;;;5.10;4.60;;;;;;;28.11;42.93;98389.91;5024119;28;20123;-84
2022/07/22 10:06:05;;;;;;;5.22;4.82;;;;;;;28.18;42.08;98385.66;5018841;28;20034;-84
2022/07/22 10:08:33;;;;;;;5.90;5.40;;;;;;;28.08;41.93;98382.44;5022572;28;20132;-84
2022/07/22 10:11:05;;;;;;;4.93;4.53;;;;;;;28.21;42.86;98384.28;5030626;28;20041;-85
2022/07/22 10:13:34;;;;;;;5.45;4.95;;;;;;;28.21;42.49;98381.56;5012157;28;20453;-87
2022/07/22 10:16:02;;;;;;;4.55;4.20;;;;;;;28.24;42.00;98376.34;5019773;28;20042;-84
2022/07/22 10:18:30;;;;;;;5.40;4.90;;;;;;;28.26;40.87;98378.75;5030987;28;20034;-86
2022/07/22 10:21:10;;;;;;;5.35;4.95;;;;;;;28.19;41.29;98370.31;5031814;28;20053;-84
2022/07/22 10:24:11;;;;;;;5.23;4.83;;;;;;;28.40;41.19;98374.09;5033452;28;20128;-86
2022/07/22 10:26:55;;;;;;;5.05;4.65;;;;;;;28.67;41.80;98361.50;5032976;28;20046;-85
2022/07/22 10:29:39;;;;;;;6.07;5.57;;;;;;;28.46;40.21;98369.38;5021244;28;20072;-86
2022/07/22 10:32:15;;;;;;;4.70;4.30;;;;;;;28.65;41.48;98361.81;5024389;28;20042;-85
2022/07/22 10:34:43;;;;;;;4.10;3.80;;;;;;;28.85;40.22;98349.69;5026782;28;20041;-85
2022/07/22 10:37:33;;;;;;;6.45;5.93;;;;;;;28.66;39.24;98370.72;5030143;28;20497;-86
2022/07/22 10:40:28;;;;;;;5.30;4.82;;;;;;;28.67;41.04;98356.09;5012395;28;20105;-85
2022/07/22 10:42:58;;;;;;;5.78;5.28;;;;;;;28.51;39.73;98361.13;5004841;28;20057;-88
2022/07/22 10:45:30;;;;;;;5.72;4.97;;;;;;;28.64;40.15;98351.34;5033244;28;20075;-86
2022/07/22 10:48:07;;;;;;;4.82;4.50;;;;;;;28.78;39.86;98344.72;5027654;28;20041;-85
2022/07/22 10:50:40;;;;;;;5.65;5.15;;;;;;;29.06;39.73;98345.31;5009190;28;20041;-89
2022/07/22 10:54:16;;;;;;;5.75;5.32;;;;;;;29.13;39.64;98346.75;5012212;28;20076;-85
2022/07/22 10:57:03;;;;;;;5.63;5.18;;;;;;;28.99;39.29;98350.38;4972221;28;20061;-85
2022/07/22 10:59:30;;;;;;;6.40;5.75;;;;;;;29.05;39.25;98343.72;5010897;28;20042;-84
2022/07/22 11:01:58;;;;;;;4.70;4.38;;;;;;;29.14;37.76;98335.63;5011458;28;20482;-84
2022/07/22 11:04:27;;;;;;;5.22;4.82;;;;;;;29.21;39.05;98338.69;5022447;28;20045;-86
2022/07/22 11:06:57;;;;;;;4.93;4.43;;;;;;;29.35;37.67;98343.94;5014405;28;20057;-87
2022/07/22 11:09:34;;;;;;;4.82;4.43;;;;;;;29.53;38.48;98321.25;5027491;28;20111;-87
2022/07/22 11:12:02;;;;;;;4.75;4.45;;;;;;;29.47;37.21;98327.09;5028951;28;20125;-87
2022/07/22 11:14:35;;;;;;;5.28;4.88;;;;;;;29.49;36.57;98314.84;5013577;28;20055;-84
2022/07/22 11:17:09;;;;;;;5.15;4.70;;;;;;;29.50;37.70;98313.72;5019676;28;20046;-87
2022/07/22 11:19:38;;;;;;;6.03;5.53;;;;;;;29.29;37.17;98304.69;5025855;28;20046;-86
2022/07/22 11:22:13;;;;;;;6.13;5.40;;;;;;;29.17;37.69;98297.22;5029834;28;20050;-87
2022/07/22 11:24:41;;;;;;;5.20;4.70;;;;;;;29.42;38.64;98303.72;5016303;28;20057;-90
2022/07/22 11:27:21;;;;;;;4.80;4.40;;;;;;;29.64;38.41;98302.00;5020954;28;20033;-87
2022/07/22 11:29:52;;;;;;;4.93;4.40;;;;;;;29.83;38.02;98308.66;5025114;28;20501;-85
2022/07/22 11:32:24;;;;;;;4.30;4.00;;;;;;;30.05;37.66;98299.56;5027991;28;20502;-84
2022/07/22 11:34:55;;;;;;;3.47;3.13;;;;;;;30.26;38.47;98301.56;5019154;28;20050;-85
2022/07/22 11:37:24;;;;;;;4.97;4.57;;;;;;;30.25;36.13;98300.00;5025099;28;20092;-88
2022/07/22 11:39:59;;;;;;;3.20;3.00;;;;;;;30.52;36.31;98296.06;5029542;28;20073;-85
2022/07/22 11:42:26;;;;;;;5.20;4.70;;;;;;;30.37;34.81;98305.53;5013823;28;20041;-84